Participated 5 times
Between 1955 and 1962
Pierre Ruby, France
Tour de France 2026 starts from Barcelona, Spain in

Stats and Facts from
Tour de France.

2026   2025   2024   2023  2022  2021  2020  2019   2018  2017   2016   2015  2014  2013   2012   2011  2010   2009   2008   2007   2006   2005   2004   2003   2002   2001   2000   1999   1998   1997  1996   1995   1994   1993   1992  1991   1990   1989   1988   1987   1986   1985   1984   1983  1982  1981   1980   1979  1978  1977   1976  1975  1974  1973   1972   1971   1970  1969   1968   1967   1966   1965  1964  1963   1962   1961   1960   1959   1958   1957  1956   1955   1954   1953   1952  1951  1950  1949   1948  1947  1939   1938   1937   1936   1935   1934   1933  1932   1931   1930  1929   1928   1927   1926  1925  1924  1923   1922   1921   1920   1919  1914   1913   1912   1911   1910  1909   1908   1907   1906  1905  1904   1903 

Tourstats
Sitemap

After stage 21 - 2025:
 16451 starters.
  5463 different riders.
  689 teams.
  2398 stages.
  470 restdays.
  466506.50 km.
  5925 abandoned riders.

Click map for 2016 route.
Facts from Tour de France 2016
  |   Stages.  |   Stage winners.  |   Days in jerseys.  |   Teams.  |   All riders.  |   All riders by age.  |   All riders from.  |  

  |   Rookies.  |   Withdrawls.  |   Average speed.  |   GC.  |   Polka  |   Green  |   White  |   Summits. (In tour)  |   Miscellaneous.  |  

Stage 8 on July 9th. 2016
Pick a stage:  1  2  3  4  5  6  7  8  9  10  11  12  13  14  15  16  17  18  19  20  21  

After stage 8:    Chris Froome    Rafał Majka    Mark Cavendish    Adam Yates  
  PauBagnères-de-Luchon | Dist: 183.00km. | Winner: Chris Froome

Podium
HC  Col du Tourmalet Thibaut Pinotafter86.00 km.

2  La Hourquette d'Ancizan Thibaut Pinotafter120.00 km.

1  Col de Val Louron-Azet Wout Poelsafter148.00 km.

1  Col de Peyresourde Chris Froomeafter168.50 km.


Average speed for all riders in stage:  33,893 km./hr.

1
 Chris Froome  Sky Procycling04h 57' 33"=36,901  km/h

2
 Dan Martin  Etixx-Quick Step04h 57' 46"+  00:00:13 =36,875  km/h

3
 Joaquin Rodriguez  Katusha04h 57' 46"+  00:00:13 =36,875  km/h

4  Romain Bardet  AG2R La Mondiale04h 57' 46"+  00:00:13 =36,875  km/h

5  Roman Kreuziger  Tinkoff04h 57' 46"+  00:00:13 =36,875  km/h

6  Fabio Aru  Astana Pro Team04h 57' 46"+  00:00:13 =36,875  km/h

7  Adam Yates  ORICA BikeExchange04h 57' 46"+  00:00:13 =36,875  km/h

8  Alejandro Valverde  Movistar04h 57' 46"+  00:00:13 =36,875  km/h

9  Bauke Mollema  Trek-Segafredo04h 57' 46"+  00:00:13 =36,875  km/h

10  Richie Porte  BMC04h 57' 46"+  00:00:13 =36,875  km/h

11  Nairo Quintana  Movistar04h 57' 46"+  00:00:13 =36,875  km/h

12  Tejay Van Garderen  BMC04h 57' 46"+  00:00:13 =36,875  km/h

13  Louis Meintjes  Lampre-Merida04h 57' 46"+  00:00:13 =36,875  km/h

14  Sergio Henao  Sky Procycling04h 57' 46"+  00:00:13 =36,875  km/h

15  Emanuel Buchmann  Bora-Argon 1804h 59' 14"+  00:01:41 =36,694  km/h

16  Warren Barguil  Giant-Alpecin04h 59' 14"+  00:01:41 =36,694  km/h

17  Alberto Contador  Tinkoff04h 59' 14"+  00:01:41 =36,694  km/h

18  Jarlinson Pantano  IAM Cycling04h 59' 14"+  00:01:41 =36,694  km/h

19  Geraint Thomas  Sky Procycling04h 59' 14"+  00:01:41 =36,694  km/h

20  Mikel Nieve  Sky Procycling04h 59' 14"+  00:01:41 =36,694  km/h

21  Domenico Pozzovivo  AG2R La Mondiale04h 59' 14"+  00:01:41 =36,694  km/h

22  Fränk Schleck  Trek-Segafredo04h 59' 14"+  00:01:41 =36,694  km/h

23  Jurgen Van Den Broeck  Katusha04h 59' 14"+  00:01:41 =36,694  km/h

24  Pierre Rolland  Cannondale Pro Cycling04h 59' 18"+  00:01:45 =36,686  km/h

25  Jakob Fuglsang  Astana Pro Team04h 59' 18"+  00:01:45 =36,686  km/h

26  Wilco Kelderman  Lotto NL-Jumbo04h 59' 18"+  00:01:45 =36,686  km/h

27  Sébastien Reichenbach  FDJ05h 00' 28"+  00:02:55 =36,543  km/h

28  Damiano Caruso  BMC05h 01' 43"+  00:04:10 =36,392  km/h

29  George Bennett  Lotto NL-Jumbo05h 01' 45"+  00:04:12 =36,388  km/h

30  Tanel Kangert  Astana Pro Team05h 01' 45"+  00:04:12 =36,388  km/h

31  Ion Izagirre  Movistar05h 01' 45"+  00:04:12 =36,388  km/h

32  Eduardo Sepulveda  Fortuneo-Vital Concept05h 03' 04"+  00:05:31 =36,230  km/h

33  Thomas  Voeckler  Direct Energie05h 07' 51"+  00:10:18 =35,667  km/h

34  Laurens Ten Dam  Giant-Alpecin05h 07' 51"+  00:10:18 =35,667  km/h

35  Haimar  Zubeldía  Trek-Segafredo05h 07' 51"+  00:10:18 =35,667  km/h

36  Mikel Landa  Sky Procycling05h 07' 51"+  00:10:18 =35,667  km/h

37  Rafał Majka  Tinkoff05h 08' 59"+  00:11:26 =35,536  km/h

38  Wout Poels  Sky Procycling05h 08' 59"+  00:11:26 =35,536  km/h

39  Alexis Vuillermoz  AG2R La Mondiale05h 10' 07"+  00:12:34 =35,406  km/h

40  Steve Morabito  FDJ05h 10' 58"+  00:13:25 =35,309  km/h

41  Ilnur Zakarin  Katusha05h 10' 58"+  00:13:25 =35,309  km/h

42  Bartosz Huzarski  Bora-Argon 1805h 10' 58"+  00:13:25 =35,309  km/h

43  Amaël Moinard  BMC05h 10' 58"+  00:13:25 =35,309  km/h

44  Peter Stetina  Trek-Segafredo05h 10' 58"+  00:13:25 =35,309  km/h

45  Rubén Plaza  ORICA BikeExchange05h 10' 58"+  00:13:25 =35,309  km/h

46  Daniel Navarro  Cofidis – Solutions Crédits05h 10' 58"+  00:13:25 =35,309  km/h

47  Georg Preidler  Giant-Alpecin05h 10' 58"+  00:13:25 =35,309  km/h

48  Tony Martin  Etixx-Quick Step05h 10' 58"+  00:13:25 =35,309  km/h

49  Mathias Frank  IAM Cycling05h 10' 58"+  00:13:25 =35,309  km/h

50  Robert Kišerlovski  Tinkoff05h 10' 58"+  00:13:25 =35,309  km/h

51  Thibaut Pinot  FDJ05h 13' 52"+  00:16:19 =34,983  km/h

52  Daryl Impey  ORICA BikeExchange05h 13' 52"+  00:16:19 =34,983  km/h

53  Tom Dumoulin  Giant-Alpecin05h 16' 10"+  00:18:37 =34,729  km/h

54  Gorka Izagirre  Movistar05h 18' 27"+  00:20:54 =34,480  km/h

55  Nelson Oliveira  Movistar05h 18' 27"+  00:20:54 =34,480  km/h

56  Fabrice Jeandesboz  Direct Energie05h 18' 57"+  00:21:24 =34,425  km/h

57  Alexey Lutsenko  Astana Pro Team05h 20' 06"+  00:22:33 =34,302  km/h

58  Alberto Losada  Katusha05h 21' 42"+  00:24:09 =34,131  km/h

59  Dylan Van Baarle  Cannondale Pro Cycling05h 22' 47"+  00:25:14 =34,017  km/h

60  Stef Clement  IAM Cycling05h 23' 15"+  00:25:42 =33,968  km/h

61  Andriy Grivko  Astana Pro Team05h 23' 15"+  00:25:42 =33,968  km/h

62  Chris Anker Sørensen  Fortuneo-Vital Concept05h 23' 15"+  00:25:42 =33,968  km/h

63  Anthony Roux  FDJ05h 23' 15"+  00:25:42 =33,968  km/h

64  Martin Elmiger  IAM Cycling05h 23' 15"+  00:25:42 =33,968  km/h

65  Luis Angel Mate  Cofidis – Solutions Crédits05h 23' 15"+  00:25:42 =33,968  km/h

66  Winner Anacona  Movistar05h 23' 15"+  00:25:42 =33,968  km/h

67  Michael Schär  BMC05h 23' 15"+  00:25:42 =33,968  km/h

68  Rohan Dennis  BMC05h 23' 15"+  00:25:42 =33,968  km/h

69  Julian Alaphilippe  Etixx-Quick Step05h 23' 15"+  00:25:42 =33,968  km/h

70  Oliver Naesen  IAM Cycling05h 23' 15"+  00:25:42 =33,968  km/h

71  Mikaël Cherel  AG2R La Mondiale05h 23' 15"+  00:25:42 =33,968  km/h

72  Jan Polanc  Lampre-Merida05h 23' 15"+  00:25:42 =33,968  km/h

73  Simon Gerrans  ORICA BikeExchange05h 23' 15"+  00:25:42 =33,968  km/h

74  Arnold Jeannesson  Cofidis – Solutions Crédits05h 23' 15"+  00:25:42 =33,968  km/h

75  Luke Durbridge  ORICA BikeExchange05h 23' 15"+  00:25:42 =33,968  km/h

76  Tony Gallopin  Lotto Soudal05h 23' 15"+  00:25:42 =33,968  km/h

77  Sylvain Chavanel  Direct Energie05h 23' 15"+  00:25:42 =33,968  km/h

78  Paolo Tiralongo  Astana Pro Team05h 23' 15"+  00:25:42 =33,968  km/h

79  Patrick Konrad  Bora-Argon 1805h 23' 15"+  00:25:42 =33,968  km/h

80  Vincenzo Nibali  Astana Pro Team05h 23' 15"+  00:25:42 =33,968  km/h

81  Kristijan Ðurasek  Lampre-Merida05h 23' 15"+  00:25:42 =33,968  km/h

82  Michael Valgren  Tinkoff05h 23' 15"+  00:25:42 =33,968  km/h

83  Christopher Juul Jensen  ORICA BikeExchange05h 23' 15"+  00:25:42 =33,968  km/h

84  Daniel Teklehaimanot  Dimension Data05h 23' 15"+  00:25:42 =33,968  km/h

85  Jan Bárta  Bora-Argon 1805h 23' 15"+  00:25:42 =33,968  km/h

86  Greg Van Avermaet  BMC05h 23' 15"+  00:25:42 =33,968  km/h

87  Marcus Burghardt  BMC05h 23' 15"+  00:25:42 =33,968  km/h

88  Ben Gastauer  AG2R La Mondiale05h 23' 15"+  00:25:42 =33,968  km/h

89  Romain Sicard  Direct Energie05h 23' 15"+  00:25:42 =33,968  km/h

90  Rui Costa  Lampre-Merida05h 23' 15"+  00:25:42 =33,968  km/h

91  Luis León Sánchez  Astana Pro Team05h 23' 27"+  00:25:54 =33,947  km/h

92  Daniel Moreno  Movistar05h 23' 27"+  00:25:54 =33,947  km/h

93  Thomas De Gendt  Lotto Soudal05h 27' 05"+  00:29:32 =33,569  km/h

94  Arthur Vichot  FDJ05h 30' 21"+  00:32:48 =33,237  km/h

95  Cesare Benedetti  Bora-Argon 1805h 30' 21"+  00:32:48 =33,237  km/h

96  Reto Hollenstein  IAM Cycling05h 30' 21"+  00:32:48 =33,237  km/h

97  Jérémy Roy  FDJ05h 30' 21"+  00:32:48 =33,237  km/h

98  Marco Haller  Katusha05h 32' 16"+  00:34:43 =33,046  km/h

99  Fabian Cancellara  Trek-Segafredo05h 32' 16"+  00:34:43 =33,046  km/h

100  Roy Curvers  Giant-Alpecin05h 32' 16"+  00:34:43 =33,046  km/h

101  Tom-Jelte Slagter  Cannondale Pro Cycling05h 32' 16"+  00:34:43 =33,046  km/h

102  Lawson Craddock  Cannondale Pro Cycling05h 32' 16"+  00:34:43 =33,046  km/h

103  Gregory Rast  Trek-Segafredo05h 32' 16"+  00:34:43 =33,046  km/h

104  Simon Geschke  Giant-Alpecin05h 32' 16"+  00:34:43 =33,046  km/h

105  Markel Irizar  Trek-Segafredo05h 32' 16"+  00:34:43 =33,046  km/h

106  Luka Pibernik  Lampre-Merida05h 32' 16"+  00:34:43 =33,046  km/h

107  Reinardt Janse Van Rensburg  Dimension Data05h 32' 16"+  00:34:43 =33,046  km/h

108  Imanol Erviti  Movistar05h 32' 16"+  00:34:43 =33,046  km/h

109  Julien Vermote  Etixx-Quick Step05h 32' 16"+  00:34:43 =33,046  km/h

110  Maarten Wynants  Lotto NL-Jumbo05h 32' 16"+  00:34:43 =33,046  km/h

111  Michael Matthews  ORICA BikeExchange05h 32' 16"+  00:34:43 =33,046  km/h

112  Jesus Herrada  Movistar05h 32' 16"+  00:34:43 =33,046  km/h

113  William  Bonnet  FDJ05h 32' 16"+  00:34:43 =33,046  km/h

114  Andreas Schillinger  Bora-Argon 1805h 32' 16"+  00:34:43 =33,046  km/h

115  Alex Howes  Cannondale Pro Cycling05h 32' 16"+  00:34:43 =33,046  km/h

116  Ian Stannard  Sky Procycling05h 32' 16"+  00:34:43 =33,046  km/h

117  Angelo Tulik  Direct Energie05h 32' 16"+  00:34:43 =33,046  km/h

118  Yohann Gène  Direct Energie05h 32' 16"+  00:34:43 =33,046  km/h

119  Bryan Coquard  Direct Energie05h 32' 16"+  00:34:43 =33,046  km/h

120  Jan Bakelants  AG2R La Mondiale05h 32' 16"+  00:34:43 =33,046  km/h

121  Serge Pauwels  Dimension Data05h 32' 16"+  00:34:43 =33,046  km/h

122  Nicolas Edet  Cofidis – Solutions Crédits05h 32' 16"+  00:34:43 =33,046  km/h

123  Maciej Bodnar  Tinkoff05h 32' 16"+  00:34:43 =33,046  km/h

124  Matteo Tosatto  Tinkoff05h 32' 16"+  00:34:43 =33,046  km/h

125  Petr Vakoč  Etixx-Quick Step05h 32' 16"+  00:34:43 =33,046  km/h

126  Natnael Berhane  Dimension Data05h 32' 16"+  00:34:43 =33,046  km/h

127  Paul Martens  Lotto NL-Jumbo05h 32' 16"+  00:34:43 =33,046  km/h

128  Paul Voss  Bora-Argon 1805h 32' 16"+  00:34:43 =33,046  km/h

129  Mathew Hayman  ORICA BikeExchange05h 32' 16"+  00:34:43 =33,046  km/h

130  Michael Albasini  ORICA BikeExchange05h 32' 16"+  00:34:43 =33,046  km/h

131  Timo Roosen  Lotto NL-Jumbo05h 32' 16"+  00:34:43 =33,046  km/h

132  Christophe Laporte  Cofidis – Solutions Crédits05h 32' 16"+  00:34:43 =33,046  km/h

133  Jérôme Coppel  IAM Cycling05h 32' 16"+  00:34:43 =33,046  km/h

134  Vasil Kiryienka  Sky Procycling05h 32' 16"+  00:34:43 =33,046  km/h

135  Ramūnas Navardauskas  Cannondale Pro Cycling05h 32' 16"+  00:34:43 =33,046  km/h

136  Edvald Boasson Hagen  Dimension Data05h 32' 16"+  00:34:43 =33,046  km/h

137  Peter Sagan  Tinkoff05h 32' 16"+  00:34:43 =33,046  km/h

138  Brice Feillu  Fortuneo-Vital Concept05h 32' 16"+  00:34:43 =33,046  km/h

139  Ángel Vicioso  Katusha05h 32' 16"+  00:34:43 =33,046  km/h

140  Yukiya  Arashiro  Lampre-Merida05h 32' 16"+  00:34:43 =33,046  km/h

141  Jérôme Cousin  Cofidis – Solutions Crédits05h 32' 16"+  00:34:43 =33,046  km/h

142  Iljo Keisse  Etixx-Quick Step05h 36' 57"+  00:39:24 =32,586  km/h

143  Fabio Sabatini  Etixx-Quick Step05h 36' 57"+  00:39:24 =32,586  km/h

144  Geoffrey Soupe  Cofidis – Solutions Crédits05h 36' 57"+  00:39:24 =32,586  km/h

145  Marcel Sieberg  Lotto Soudal05h 36' 57"+  00:39:24 =32,586  km/h

146  Edward Theuns  Trek-Segafredo05h 36' 57"+  00:39:24 =32,586  km/h

147  Cyril Lemoine  Cofidis – Solutions Crédits05h 36' 57"+  00:39:24 =32,586  km/h

148  Oscar Gatto  Tinkoff05h 36' 57"+  00:39:24 =32,586  km/h

149  Sondre Holst Enger  IAM Cycling05h 36' 57"+  00:39:24 =32,586  km/h

150  Marcel Kittel  Etixx-Quick Step05h 36' 57"+  00:39:24 =32,586  km/h

151  Robert Wagner  Lotto NL-Jumbo05h 36' 57"+  00:39:24 =32,586  km/h

152  André Greipel  Lotto Soudal05h 36' 57"+  00:39:24 =32,586  km/h

153  Adam Hansen  Lotto Soudal05h 36' 57"+  00:39:24 =32,586  km/h

154  Alexander Kristoff  Katusha05h 36' 57"+  00:39:24 =32,586  km/h

155  Antoine Duchesne  Direct Energie05h 36' 57"+  00:39:24 =32,586  km/h

156  Tsgabu Grmay  Lampre-Merida05h 36' 57"+  00:39:24 =32,586  km/h

157  Cédric Pineau  FDJ05h 36' 57"+  00:39:24 =32,586  km/h

158  Matteo Bono  Lampre-Merida05h 36' 57"+  00:39:24 =32,586  km/h

159  Maximiliano Richeze  Etixx-Quick Step05h 36' 57"+  00:39:24 =32,586  km/h

160  Luke Rowe  Sky Procycling05h 36' 57"+  00:39:24 =32,586  km/h

161  Sam Bennett  Bora-Argon 1805h 36' 57"+  00:39:24 =32,586  km/h

162  Leigh Howard  IAM Cycling05h 36' 57"+  00:39:24 =32,586  km/h

163  Matthieu Ladagnous  FDJ05h 36' 57"+  00:39:24 =32,586  km/h

164  Bert-Jan Lindeman  Lotto NL-Jumbo05h 36' 57"+  00:39:24 =32,586  km/h

165  Jacopo Guarnieri  Katusha05h 36' 57"+  00:39:24 =32,586  km/h

166  Davide Cimolai  Lampre-Merida05h 36' 57"+  00:39:24 =32,586  km/h

167  Brent Bookwalter  BMC05h 36' 57"+  00:39:24 =32,586  km/h

168  Vegard Breen  Fortuneo-Vital Concept05h 36' 57"+  00:39:24 =32,586  km/h

169  Kristjan Koren  Cannondale Pro Cycling05h 36' 57"+  00:39:24 =32,586  km/h

170  Borut Božič  Cofidis – Solutions Crédits05h 36' 57"+  00:39:24 =32,586  km/h

171  Anthony Delaplace  Fortuneo-Vital Concept05h 36' 57"+  00:39:24 =32,586  km/h

172  Florian Vachon  Fortuneo-Vital Concept05h 36' 57"+  00:39:24 =32,586  km/h

173  Pierre-Luc Périchon  Fortuneo-Vital Concept05h 36' 57"+  00:39:24 =32,586  km/h

174  Gregory Henderson  Lotto Soudal05h 36' 57"+  00:39:24 =32,586  km/h

175  Jürgen Roelandts  Lotto Soudal05h 36' 57"+  00:39:24 =32,586  km/h

176  Alexis Gougeard  AG2R La Mondiale05h 36' 57"+  00:39:24 =32,586  km/h

177  Diego Rosa  Astana Pro Team05h 36' 57"+  00:39:24 =32,586  km/h

178  Albert Timmer  Giant-Alpecin05h 36' 57"+  00:39:24 =32,586  km/h

179  Ramon Sinkeldam  Giant-Alpecin05h 36' 57"+  00:39:24 =32,586  km/h

180  Sep Vanmarcke  Lotto NL-Jumbo05h 36' 57"+  00:39:24 =32,586  km/h

181  John Degenkolb  Giant-Alpecin05h 36' 57"+  00:39:24 =32,586  km/h

182  Armindo Fonseca  Fortuneo-Vital Concept05h 36' 57"+  00:39:24 =32,586  km/h

183  Cyril Gautier  AG2R La Mondiale05h 36' 57"+  00:39:24 =32,586  km/h

184  Daniel McLay  Fortuneo-Vital Concept05h 36' 57"+  00:39:24 =32,586  km/h

185  Adrien Petit  Direct Energie05h 36' 57"+  00:39:24 =32,586  km/h

186  Mark Renshaw  Dimension Data05h 36' 57"+  00:39:24 =32,586  km/h

187  Sebastian Langeveld  Cannondale Pro Cycling05h 36' 57"+  00:39:24 =32,586  km/h

188  Matti Breschel  Cannondale Pro Cycling05h 36' 57"+  00:39:24 =32,586  km/h

189  Jens Debusschere  Lotto Soudal05h 36' 57"+  00:39:24 =32,586  km/h

190  Jasper Stuyven  Trek-Segafredo05h 36' 57"+  00:39:24 =32,586  km/h

191  Samuel Dumoulin  AG2R La Mondiale05h 36' 57"+  00:39:24 =32,586  km/h

192  Stephen Cummings  Dimension Data05h 36' 57"+  00:39:24 =32,586  km/h

193  Lars Bak  Lotto Soudal05h 36' 57"+  00:39:24 =32,586  km/h

194  Dylan Groenewegen  Lotto NL-Jumbo05h 36' 57"+  00:39:24 =32,586  km/h

195  Shane Archbold  Bora-Argon 1805h 36' 57"+  00:39:24 =32,586  km/h

196  Mark Cavendish  Dimension Data05h 36' 57"+  00:39:24 =32,586  km/h

197  Bernhard Eisel  Dimension Data05h 36' 57"+  00:39:24 =32,586  km/h


Withdrawls: 1
 RiderTeamReason
146   Michael Mørkøv KatushaDid not finish
Todays birthdays.

1888 • Giuseppe Contesini
1911 • Edmond Pages
1935 • Eddy Pauwels
1940 • Julien Haelterman
1958 • Luc Colijn
1962 • Jean-François Bernard
1984 • Yann Huguet
1993 • Owain Doull

 

Optimized for Chrome - Edge
and Opera browsers.